sensor_id;sensor_type;location;lat;lon;timestamp;temperature;humidity
5286;DHT22;2665;53.112;7.358;2022-10-13T00:21:25;10.10;97.00
5286;DHT22;2665;53.112;7.358;2022-10-13T00:23:52;10.00;99.90
5286;DHT22;2665;53.112;7.358;2022-10-13T00:26:21;10.00;99.90
5286;DHT22;2665;53.112;7.358;2022-10-13T00:28:46;9.90;99.90
5286;DHT22;2665;53.112;7.358;2022-10-13T00:31:23;9.90;99.90
5286;DHT22;2665;53.112;7.358;2022-10-13T00:33:49;9.90;99.90
5286;DHT22;2665;53.112;7.358;2022-10-13T00:36:16;9.90;99.90
5286;DHT22;2665;53.112;7.358;2022-10-13T00:38:42;9.80;99.90
5286;DHT22;2665;53.112;7.358;2022-10-13T00:41:08;9.90;99.90
5286;DHT22;2665;53.112;7.358;2022-10-13T00:43:56;9.80;99.90
5286;DHT22;2665;53.112;7.358;2022-10-13T00:46:24;9.90;99.90
5286;DHT22;2665;53.112;7.358;2022-10-13T00:48:50;9.90;99.90
5286;DHT22;2665;53.112;7.358;2022-10-13T00:51:20;9.90;99.90
5286;DHT22;2665;53.112;7.358;2022-10-13T00:53:47;9.90;99.90
5286;DHT22;2665;53.112;7.358;2022-10-13T00:56:15;9.90;99.90
5286;DHT22;2665;53.112;7.358;2022-10-13T00:58:43;9.90;99.90
5286;DHT22;2665;53.112;7.358;2022-10-13T01:01:10;9.90;99.90
5286;DHT22;2665;53.112;7.358;2022-10-13T01:03:36;9.90;99.90
5286;DHT22;2665;53.112;7.358;2022-10-13T01:06:03;9.90;99.90
5286;DHT22;2665;53.112;7.358;2022-10-13T01:08:30;9.90;99.90
5286;DHT22;2665;53.112;7.358;2022-10-13T01:22:33;9.80;99.90
5286;DHT22;2665;53.112;7.358;2022-10-13T01:35:17;9.80;99.90
5286;DHT22;2665;53.112;7.358;2022-10-13T01:38:08;9.80;99.90
5286;DHT22;2665;53.112;7.358;2022-10-13T01:43:21;9.80;99.90
5286;DHT22;2665;53.112;7.358;2022-10-13T01:48:35;9.80;99.90
5286;DHT22;2665;53.112;7.358;2022-10-13T01:51:01;9.80;99.90
5286;DHT22;2665;53.112;7.358;2022-10-13T01:53:29;9.80;99.90
5286;DHT22;2665;53.112;7.358;2022-10-13T01:55:57;9.80;99.90
5286;DHT22;2665;53.112;7.358;2022-10-13T01:58:27;9.70;99.90
5286;DHT22;2665;53.112;7.358;2022-10-13T02:03:52;9.80;99.90
5286;DHT22;2665;53.112;7.358;2022-10-13T02:06:24;9.70;99.90
5286;DHT22;2665;53.112;7.358;2022-10-13T02:11:53;9.70;99.90
5286;DHT22;2665;53.112;7.358;2022-10-13T02:14:28;9.70;1.00
5286;DHT22;2665;53.112;7.358;2022-10-13T02:16:56;9.80;1.00
5286;DHT22;2665;53.112;7.358;2022-10-13T02:19:24;9.80;1.00
5286;DHT22;2665;53.112;7.358;2022-10-13T02:21:51;9.80;1.00
5286;DHT22;2665;53.112;7.358;2022-10-13T02:24:17;9.80;1.00
5286;DHT22;2665;53.112;7.358;2022-10-13T02:26:44;9.80;1.00
5286;DHT22;2665;53.112;7.358;2022-10-13T02:29:12;9.70;1.00
5286;DHT22;2665;53.112;7.358;2022-10-13T02:31:39;9.80;1.00
5286;DHT22;2665;53.112;7.358;2022-10-13T02:34:05;9.70;1.00
5286;DHT22;2665;53.112;7.358;2022-10-13T02:36:31;9.70;1.00
5286;DHT22;2665;53.112;7.358;2022-10-13T02:38:57;9.70;1.00
5286;DHT22;2665;53.112;7.358;2022-10-13T02:41:22;9.70;1.00
5286;DHT22;2665;53.112;7.358;2022-10-13T02:43:48;9.70;1.00
5286;DHT22;2665;53.112;7.358;2022-10-13T02:46:13;9.70;1.00
5286;DHT22;2665;53.112;7.358;2022-10-13T02:48:39;9.70;1.00
5286;DHT22;2665;53.112;7.358;2022-10-13T02:51:05;9.70;1.00
5286;DHT22;2665;53.112;7.358;2022-10-13T02:53:31;9.70;1.00
5286;DHT22;2665;53.112;7.358;2022-10-13T02:55:56;9.80;1.00
5286;DHT22;2665;53.112;7.358;2022-10-13T02:58:22;9.80;1.00
5286;DHT22;2665;53.112;7.358;2022-10-13T03:00:47;9.80;1.00
5286;DHT22;2665;53.112;7.358;2022-10-13T03:03:13;9.90;1.00
5286;DHT22;2665;53.112;7.358;2022-10-13T03:05:38;9.90;1.00
5286;DHT22;2665;53.112;7.358;2022-10-13T03:08:04;9.90;1.00
5286;DHT22;2665;53.112;7.358;2022-10-13T03:10:30;9.90;1.00
5286;DHT22;2665;53.112;7.358;2022-10-13T03:12:56;9.90;1.00
5286;DHT22;2665;53.112;7.358;2022-10-13T03:15:22;9.90;1.00
5286;DHT22;2665;53.112;7.358;2022-10-13T03:17:48;9.90;1.00
5286;DHT22;2665;53.112;7.358;2022-10-13T03:20:14;9.90;1.00
5286;DHT22;2665;53.112;7.358;2022-10-13T03:22:39;9.80;1.00
5286;DHT22;2665;53.112;7.358;2022-10-13T03:25:05;9.80;1.00
5286;DHT22;2665;53.112;7.358;2022-10-13T03:27:31;9.70;1.00
5286;DHT22;2665;53.112;7.358;2022-10-13T03:29:56;9.70;1.00
5286;DHT22;2665;53.112;7.358;2022-10-13T03:32:22;9.70;1.00
5286;DHT22;2665;53.112;7.358;2022-10-13T03:34:49;9.60;9.80
5286;DHT22;2665;53.112;7.358;2022-10-13T03:37:14;9.60;52.40
5286;DHT22;2665;53.112;7.358;2022-10-13T03:39:40;9.60;99.90
5286;DHT22;2665;53.112;7.358;2022-10-13T03:42:06;9.60;99.90
5286;DHT22;2665;53.112;7.358;2022-10-13T03:44:32;9.60;99.90
5286;DHT22;2665;53.112;7.358;2022-10-13T03:46:57;9.60;99.90
5286;DHT22;2665;53.112;7.358;2022-10-13T03:49:23;9.60;99.90
5286;DHT22;2665;53.112;7.358;2022-10-13T03:51:48;9.60;99.90
5286;DHT22;2665;53.112;7.358;2022-10-13T03:54:14;9.70;1.00
5286;DHT22;2665;53.112;7.358;2022-10-13T03:56:40;9.70;1.00
5286;DHT22;2665;53.112;7.358;2022-10-13T03:59:09;9.80;1.00
5286;DHT22;2665;53.112;7.358;2022-10-13T04:01:35;9.70;1.00
5286;DHT22;2665;53.112;7.358;2022-10-13T04:04:01;9.80;1.00
5286;DHT22;2665;53.112;7.358;2022-10-13T04:06:27;9.80;1.00
5286;DHT22;2665;53.112;7.358;2022-10-13T04:08:53;9.80;1.00
5286;DHT22;2665;53.112;7.358;2022-10-13T04:11:20;9.80;1.00
5286;DHT22;2665;53.112;7.358;2022-10-13T04:13:46;9.80;99.90
5286;DHT22;2665;53.112;7.358;2022-10-13T04:16:18;9.80;1.00
5286;DHT22;2665;53.112;7.358;2022-10-13T04:18:48;9.80;1.00
5286;DHT22;2665;53.112;7.358;2022-10-13T04:21:15;9.80;1.00
5286;DHT22;2665;53.112;7.358;2022-10-13T04:23:40;9.90;1.00
5286;DHT22;2665;53.112;7.358;2022-10-13T04:26:06;9.90;1.00
5286;DHT22;2665;53.112;7.358;2022-10-13T04:28:33;9.90;1.00
5286;DHT22;2665;53.112;7.358;2022-10-13T04:31:01;9.90;1.00
5286;DHT22;2665;53.112;7.358;2022-10-13T04:33:27;9.90;1.00
5286;DHT22;2665;53.112;7.358;2022-10-13T04:35:53;9.90;1.00
5286;DHT22;2665;53.112;7.358;2022-10-13T04:38:18;9.90;1.00
5286;DHT22;2665;53.112;7.358;2022-10-13T04:40:44;9.80;1.00
5286;DHT22;2665;53.112;7.358;2022-10-13T04:43:09;9.90;1.00
5286;DHT22;2665;53.112;7.358;2022-10-13T04:45:35;9.80;1.00
5286;DHT22;2665;53.112;7.358;2022-10-13T04:48:01;9.80;1.00
5286;DHT22;2665;53.112;7.358;2022-10-13T04:50:27;9.80;1.00
5286;DHT22;2665;53.112;7.358;2022-10-13T04:52:53;9.80;1.00
5286;DHT22;2665;53.112;7.358;2022-10-13T04:55:18;9.80;1.00
5286;DHT22;2665;53.112;7.358;2022-10-13T04:57:44;9.80;1.00
5286;DHT22;2665;53.112;7.358;2022-10-13T05:00:10;9.80;1.00
5286;DHT22;2665;53.112;7.358;2022-10-13T05:02:36;9.70;29.30
5286;DHT22;2665;53.112;7.358;2022-10-13T05:05:03;9.70;93.30
5286;DHT22;2665;53.112;7.358;2022-10-13T05:07:30;9.70;99.90
5286;DHT22;2665;53.112;7.358;2022-10-13T05:09:55;9.80;99.90
5286;DHT22;2665;53.112;7.358;2022-10-13T05:12:21;9.70;99.90
5286;DHT22;2665;53.112;7.358;2022-10-13T05:14:46;9.70;1.00
5286;DHT22;2665;53.112;7.358;2022-10-13T05:17:12;9.70;1.00
5286;DHT22;2665;53.112;7.358;2022-10-13T05:19:38;9.70;1.00
5286;DHT22;2665;53.112;7.358;2022-10-13T05:22:03;9.70;96.10
5286;DHT22;2665;53.112;7.358;2022-10-13T05:24:29;9.70;99.90
5286;DHT22;2665;53.112;7.358;2022-10-13T05:27:03;9.70;99.90
5286;DHT22;2665;53.112;7.358;2022-10-13T05:29:28;9.70;1.00
5286;DHT22;2665;53.112;7.358;2022-10-13T05:31:54;9.70;1.00
5286;DHT22;2665;53.112;7.358;2022-10-13T05:34:19;9.80;1.00
5286;DHT22;2665;53.112;7.358;2022-10-13T05:36:45;9.80;99.90
5286;DHT22;2665;53.112;7.358;2022-10-13T05:39:10;9.80;99.90
5286;DHT22;2665;53.112;7.358;2022-10-13T05:41:36;9.80;99.90
5286;DHT22;2665;53.112;7.358;2022-10-13T05:44:06;9.80;1.00
5286;DHT22;2665;53.112;7.358;2022-10-13T05:46:32;9.80;99.90
5286;DHT22;2665;53.112;7.358;2022-10-13T05:48:58;9.80;1.00
5286;DHT22;2665;53.112;7.358;2022-10-13T05:51:27;9.80;1.00
5286;DHT22;2665;53.112;7.358;2022-10-13T05:56:37;9.70;42.30
5286;DHT22;2665;53.112;7.358;2022-10-13T05:59:06;9.70;99.90
5286;DHT22;2665;53.112;7.358;2022-10-13T06:01:35;9.70;1.00
5286;DHT22;2665;53.112;7.358;2022-10-13T06:04:05;9.70;1.00
5286;DHT22;2665;53.112;7.358;2022-10-13T06:06:32;9.70;99.90
5286;DHT22;2665;53.112;7.358;2022-10-13T06:08:59;9.70;1.00
5286;DHT22;2665;53.112;7.358;2022-10-13T06:11:25;9.70;99.90
5286;DHT22;2665;53.112;7.358;2022-10-13T06:13:51;9.60;1.00
5286;DHT22;2665;53.112;7.358;2022-10-13T06:16:16;9.60;90.90
5286;DHT22;2665;53.112;7.358;2022-10-13T06:18:42;9.60;3.50
5286;DHT22;2665;53.112;7.358;2022-10-13T06:21:07;9.60;99.90
5286;DHT22;2665;53.112;7.358;2022-10-13T06:23:33;9.70;1.00
5286;DHT22;2665;53.112;7.358;2022-10-13T06:25:59;9.60;1.00
5286;DHT22;2665;53.112;7.358;2022-10-13T06:28:25;9.70;26.70
5286;DHT22;2665;53.112;7.358;2022-10-13T06:30:51;9.80;21.00
5286;DHT22;2665;53.112;7.358;2022-10-13T06:33:22;9.80;1.00
5286;DHT22;2665;53.112;7.358;2022-10-13T06:35:49;9.80;1.00
5286;DHT22;2665;53.112;7.358;2022-10-13T06:38:14;9.80;1.00
5286;DHT22;2665;53.112;7.358;2022-10-13T06:40:40;9.90;1.00
5286;DHT22;2665;53.112;7.358;2022-10-13T06:43:06;9.90;99.90
5286;DHT22;2665;53.112;7.358;2022-10-13T06:45:32;10.00;1.00
5286;DHT22;2665;53.112;7.358;2022-10-13T06:47:58;10.00;1.00
5286;DHT22;2665;53.112;7.358;2022-10-13T06:50:23;10.00;99.90
5286;DHT22;2665;53.112;7.358;2022-10-13T06:52:49;10.10;99.90
5286;DHT22;2665;53.112;7.358;2022-10-13T06:55:15;10.10;99.90
5286;DHT22;2665;53.112;7.358;2022-10-13T06:57:41;10.10;1.00
5286;DHT22;2665;53.112;7.358;2022-10-13T07:00:07;10.20;99.90
5286;DHT22;2665;53.112;7.358;2022-10-13T07:02:33;10.20;1.00
5286;DHT22;2665;53.112;7.358;2022-10-13T07:04:59;10.20;1.00
5286;DHT22;2665;53.112;7.358;2022-10-13T07:07:25;10.20;1.00
5286;DHT22;2665;53.112;7.358;2022-10-13T07:09:50;10.30;1.00
5286;DHT22;2665;53.112;7.358;2022-10-13T07:12:16;10.20;99.90
5286;DHT22;2665;53.112;7.358;2022-10-13T07:14:42;10.30;99.90
5286;DHT22;2665;53.112;7.358;2022-10-13T07:17:07;10.30;99.90
5286;DHT22;2665;53.112;7.358;2022-10-13T07:19:33;10.30;99.90
5286;DHT22;2665;53.112;7.358;2022-10-13T07:21:59;10.30;1.00
5286;DHT22;2665;53.112;7.358;2022-10-13T07:24:25;10.30;1.00
5286;DHT22;2665;53.112;7.358;2022-10-13T07:26:50;10.30;10.80
5286;DHT22;2665;53.112;7.358;2022-10-13T07:29:16;10.40;99.90
5286;DHT22;2665;53.112;7.358;2022-10-13T07:31:43;10.40;99.90
5286;DHT22;2665;53.112;7.358;2022-10-13T07:34:09;10.50;99.90
5286;DHT22;2665;53.112;7.358;2022-10-13T07:36:34;10.50;1.00
5286;DHT22;2665;53.112;7.358;2022-10-13T07:39:01;10.60;1.00
5286;DHT22;2665;53.112;7.358;2022-10-13T07:41:28;10.60;1.00
5286;DHT22;2665;53.112;7.358;2022-10-13T07:43:55;10.70;1.00
5286;DHT22;2665;53.112;7.358;2022-10-13T07:46:21;10.70;99.90
5286;DHT22;2665;53.112;7.358;2022-10-13T07:48:46;10.70;99.90
5286;DHT22;2665;53.112;7.358;2022-10-13T07:51:12;10.70;91.60
5286;DHT22;2665;53.112;7.358;2022-10-13T07:53:40;10.70;99.90
5286;DHT22;2665;53.112;7.358;2022-10-13T07:56:08;10.70;99.90
5286;DHT22;2665;53.112;7.358;2022-10-13T07:58:40;10.70;99.90
5286;DHT22;2665;53.112;7.358;2022-10-13T08:01:06;10.80;3.00
5286;DHT22;2665;53.112;7.358;2022-10-13T08:03:32;10.80;1.00
5286;DHT22;2665;53.112;7.358;2022-10-13T08:05:59;10.80;99.90
5286;DHT22;2665;53.112;7.358;2022-10-13T08:08:25;10.80;99.90
5286;DHT22;2665;53.112;7.358;2022-10-13T08:10:51;10.80;99.90
5286;DHT22;2665;53.112;7.358;2022-10-13T08:13:16;10.90;99.90
5286;DHT22;2665;53.112;7.358;2022-10-13T08:15:43;11.00;99.90
5286;DHT22;2665;53.112;7.358;2022-10-13T08:18:10;11.00;1.00
5286;DHT22;2665;53.112;7.358;2022-10-13T08:20:40;11.00;1.00
5286;DHT22;2665;53.112;7.358;2022-10-13T08:23:07;11.10;1.00
5286;DHT22;2665;53.112;7.358;2022-10-13T08:25:39;11.10;99.90
5286;DHT22;2665;53.112;7.358;2022-10-13T08:28:09;11.20;99.90
5286;DHT22;2665;53.112;7.358;2022-10-13T08:30:39;11.30;99.90
5286;DHT22;2665;53.112;7.358;2022-10-13T08:33:05;11.40;99.90
5286;DHT22;2665;53.112;7.358;2022-10-13T08:35:31;11.40;99.90
5286;DHT22;2665;53.112;7.358;2022-10-13T08:37:56;11.40;99.90
5286;DHT22;2665;53.112;7.358;2022-10-13T08:40:22;11.50;1.00
5286;DHT22;2665;53.112;7.358;2022-10-13T08:42:48;11.50;1.00
5286;DHT22;2665;53.112;7.358;2022-10-13T08:45:25;11.50;99.90
5286;DHT22;2665;53.112;7.358;2022-10-13T08:50:24;11.50;1.00
5286;DHT22;2665;53.112;7.358;2022-10-13T08:58:00;11.60;99.90
5286;DHT22;2665;53.112;7.358;2022-10-13T09:00:28;11.70;99.90
5286;DHT22;2665;53.112;7.358;2022-10-13T09:03:00;11.70;99.90
5286;DHT22;2665;53.112;7.358;2022-10-13T09:05:40;11.70;86.50
5286;DHT22;2665;53.112;7.358;2022-10-13T09:08:16;11.80;1.00
5286;DHT22;2665;53.112;7.358;2022-10-13T09:10:48;11.90;1.00
5286;DHT22;2665;53.112;7.358;2022-10-13T09:13:14;11.90;99.90
5286;DHT22;2665;53.112;7.358;2022-10-13T09:15:44;12.00;1.00
5286;DHT22;2665;53.112;7.358;2022-10-13T09:18:11;12.20;75.80
5286;DHT22;2665;53.112;7.358;2022-10-13T09:20:38;12.60;1.00
5286;DHT22;2665;53.112;7.358;2022-10-13T09:25:38;13.10;1.00
5286;DHT22;2665;53.112;7.358;2022-10-13T09:30:45;13.00;1.00
5286;DHT22;2665;53.112;7.358;2022-10-13T09:33:22;13.00;1.00
5286;DHT22;2665;53.112;7.358;2022-10-13T09:38:24;12.90;99.90
5286;DHT22;2665;53.112;7.358;2022-10-13T09:43:37;12.80;99.90
5286;DHT22;2665;53.112;7.358;2022-10-13T09:46:32;12.80;29.90
5286;DHT22;2665;53.112;7.358;2022-10-13T09:51:50;12.70;92.20
5286;DHT22;2665;53.112;7.358;2022-10-13T09:56:56;12.70;99.90
5286;DHT22;2665;53.112;7.358;2022-10-13T10:01:49;12.70;99.90
5286;DHT22;2665;53.112;7.358;2022-10-13T10:04:22;12.70;99.90
5286;DHT22;2665;53.112;7.358;2022-10-13T10:06:49;12.70;99.90
5286;DHT22;2665;53.112;7.358;2022-10-13T10:09:39;12.70;1.00
5286;DHT22;2665;53.112;7.358;2022-10-13T10:12:08;12.80;1.00
5286;DHT22;2665;53.112;7.358;2022-10-13T10:14:36;12.90;1.00
5286;DHT22;2665;53.112;7.358;2022-10-13T10:19:46;13.00;99.90
5286;DHT22;2665;53.112;7.358;2022-10-13T10:22:36;13.00;99.90
5286;DHT22;2665;53.112;7.358;2022-10-13T10:27:51;13.00;1.00
5286;DHT22;2665;53.112;7.358;2022-10-13T10:30:20;12.90;1.00
5286;DHT22;2665;53.112;7.358;2022-10-13T10:38:37;12.90;99.90
5286;DHT22;2665;53.112;7.358;2022-10-13T10:44:08;12.90;1.00
5286;DHT22;2665;53.112;7.358;2022-10-13T10:46:43;12.90;99.90
